Time;durP1;ratioP1;P1;durP2;ratioP2;P2;SDS_P1;SDS_P2;PMS_P1;PMS_P2;Temp;Humidity;BMP_temperature;BMP_pressure;BME280_temperature;BME280_humidity;BME280_pressure;Samples;Min_cycle;Max_cycle;Signal;HPM_P1;HPM_P2
2022/04/02 00:00:52;;;;;;;2.93;2.73;;;3.70;93.20;;;;;;894355;157;27457;-75
2022/04/02 00:03:19;;;;;;;3.00;2.80;;;3.70;93.10;;;;;;894975;157;27440;-75
2022/04/02 00:05:46;;;;;;;3.13;2.87;;;3.70;93.10;;;;;;893756;157;27496;-75
2022/04/02 00:08:12;;;;;;;2.77;2.57;;;3.70;93.10;;;;;;891828;157;27532;-75
2022/04/02 00:10:39;;;;;;;2.87;2.67;;;3.70;93.20;;;;;;893322;156;27479;-75
2022/04/02 00:13:05;;;;;;;2.60;2.40;;;3.70;93.10;;;;;;894714;157;27473;-75
2022/04/02 00:15:32;;;;;;;3.23;2.93;;;3.70;93.30;;;;;;893472;157;27423;-75
2022/04/02 00:17:59;;;;;;;2.60;2.40;;;3.70;93.20;;;;;;894303;157;27413;-75
2022/04/02 00:20:25;;;;;;;2.93;2.73;;;3.70;93.20;;;;;;893260;157;27495;-76
2022/04/02 00:25:37;;;;;;;2.23;2.13;;;3.70;93.20;;;;;;895053;157;27385;-75
2022/04/02 00:28:03;;;;;;;2.63;2.43;;;3.80;93.20;;;;;;894908;156;27493;-76
2022/04/02 00:30:30;;;;;;;2.70;2.50;;;3.80;93.10;;;;;;893154;157;27509;-75
2022/04/02 00:32:56;;;;;;;2.87;2.40;;;3.80;93.20;;;;;;893079;157;27512;-75
2022/04/02 00:35:23;;;;;;;2.53;2.33;;;3.80;93.20;;;;;;894632;157;27992;-75
2022/04/02 00:37:49;;;;;;;2.40;2.27;;;3.80;93.20;;;;;;894223;157;27430;-75
2022/04/02 00:40:16;;;;;;;2.53;2.30;;;3.80;93.20;;;;;;893290;157;27371;-75
2022/04/02 00:42:44;;;;;;;2.33;2.23;;;3.80;93.10;;;;;;894319;157;27428;-75
2022/04/02 00:45:09;;;;;;;2.63;2.40;;;3.70;93.10;;;;;;894649;156;27510;-75
2022/04/02 00:47:36;;;;;;;2.50;2.30;;;3.70;93.10;;;;;;895160;157;27399;-75
2022/04/02 00:50:02;;;;;;;2.70;2.33;;;3.70;93.00;;;;;;895836;157;27427;-75
2022/04/02 00:52:29;;;;;;;2.20;2.10;;;3.70;93.00;;;;;;895616;157;27419;-75
2022/04/02 00:54:55;;;;;;;2.40;2.20;;;3.70;93.00;;;;;;895300;157;27951;-75
2022/04/02 00:57:24;;;;;;;2.20;2.07;;;3.70;93.10;;;;;;893895;157;27461;-75
2022/04/02 00:59:49;;;;;;;3.37;2.50;;;3.70;93.10;;;;;;894247;157;27530;-75
2022/04/02 01:02:15;;;;;;;1.90;1.80;;;3.70;93.10;;;;;;895323;157;27344;-75
2022/04/02 01:04:42;;;;;;;3.00;2.70;;;3.70;93.10;;;;;;893911;157;27377;-75
2022/04/02 01:07:08;;;;;;;2.67;2.47;;;3.60;93.00;;;;;;893620;157;27524;-75
2022/04/02 01:09:35;;;;;;;2.37;2.17;;;3.60;93.10;;;;;;895229;157;27428;-75
2022/04/02 01:12:02;;;;;;;2.73;2.07;;;3.60;93.10;;;;;;893852;157;27392;-75
2022/04/02 01:14:28;;;;;;;1.93;1.83;;;3.60;93.10;;;;;;893305;157;27511;-75
2022/04/02 01:16:55;;;;;;;3.23;2.00;;;3.60;93.20;;;;;;895138;157;27444;-75
2022/04/02 01:19:21;;;;;;;2.40;2.30;;;3.60;93.30;;;;;;894531;156;27420;-75
2022/04/02 01:21:48;;;;;;;2.87;2.10;;;3.60;93.30;;;;;;895168;157;27427;-75
2022/04/02 01:24:15;;;;;;;2.60;2.23;;;3.60;93.20;;;;;;893450;156;27436;-75
2022/04/02 01:26:41;;;;;;;2.13;1.93;;;3.60;93.30;;;;;;892632;156;27376;-75
2022/04/02 01:29:08;;;;;;;2.30;1.87;;;3.60;93.30;;;;;;892466;156;27410;-75
2022/04/02 01:31:34;;;;;;;2.40;2.20;;;3.60;93.30;;;;;;891451;156;27462;-75
2022/04/02 01:34:01;;;;;;;2.20;2.10;;;3.60;93.40;;;;;;892700;156;27516;-75
2022/04/02 01:36:27;;;;;;;2.53;2.33;;;3.60;93.30;;;;;;892787;156;28917;-75
2022/04/02 01:38:54;;;;;;;2.43;2.23;;;3.60;93.40;;;;;;892474;156;27423;-75
2022/04/02 01:41:21;;;;;;;2.30;2.10;;;3.60;93.20;;;;;;894478;156;27395;-75
2022/04/02 01:43:49;;;;;;;2.30;2.10;;;3.60;93.20;;;;;;867261;162;27503;-75
2022/04/02 01:46:14;;;;;;;3.77;2.37;;;3.60;93.30;;;;;;867232;162;27642;-75
2022/04/02 01:48:40;;;;;;;2.30;2.10;;;3.60;93.30;;;;;;879379;159;27367;-75
2022/04/02 01:51:07;;;;;;;1.90;1.80;;;3.60;93.40;;;;;;883515;158;27401;-75
2022/04/02 01:53:34;;;;;;;2.70;2.00;;;3.50;93.40;;;;;;893470;156;27380;-75
2022/04/02 01:56:00;;;;;;;2.30;2.10;;;3.60;93.40;;;;;;891161;156;27558;-75
2022/04/02 01:58:27;;;;;;;2.30;2.13;;;3.60;93.50;;;;;;892481;156;27513;-75
2022/04/02 02:00:53;;;;;;;2.33;2.13;;;3.60;93.40;;;;;;892086;156;27474;-75
2022/04/02 02:03:20;;;;;;;2.37;2.17;;;3.50;93.40;;;;;;891551;156;27472;-75
2022/04/02 02:05:46;;;;;;;2.00;1.90;;;3.50;93.40;;;;;;892359;156;27493;-74
2022/04/02 02:08:13;;;;;;;2.00;1.90;;;3.50;93.40;;;;;;892706;156;27442;-75
2022/04/02 02:10:40;;;;;;;3.87;2.00;;;3.50;93.40;;;;;;893250;156;27451;-76
2022/04/02 02:13:06;;;;;;;2.07;1.97;;;3.50;93.50;;;;;;892416;156;27456;-75
2022/04/02 02:15:33;;;;;;;2.30;2.10;;;3.50;93.50;;;;;;894379;156;27399;-75
2022/04/02 02:17:59;;;;;;;2.50;2.30;;;3.50;93.40;;;;;;892056;156;27340;-74
2022/04/02 02:20:26;;;;;;;2.30;2.00;;;3.50;93.50;;;;;;891281;156;27502;-74
2022/04/02 02:22:53;;;;;;;2.20;2.00;;;3.50;93.40;;;;;;891955;156;27424;-74
2022/04/02 02:25:19;;;;;;;2.03;1.93;;;3.50;93.40;;;;;;892653;156;27457;-74
2022/04/02 02:27:47;;;;;;;2.63;2.17;;;3.50;93.50;;;;;;892751;156;27395;-74
2022/04/02 02:30:12;;;;;;;2.60;2.20;;;3.50;93.40;;;;;;892105;156;28276;-74
2022/04/02 02:32:39;;;;;;;1.90;1.80;;;3.50;93.50;;;;;;892295;156;27467;-74
2022/04/02 02:38:05;;;;;;;2.47;2.03;;;3.50;93.50;;;;;;891653;156;27424;-73
2022/04/02 02:40:32;;;;;;;2.40;2.20;;;3.50;93.40;;;;;;864669;162;27434;-73
2022/04/02 02:42:58;;;;;;;2.47;2.30;;;3.50;93.50;;;;;;867041;162;27524;-74
2022/04/02 02:45:25;;;;;;;2.07;1.97;;;3.40;93.10;;;;;;878766;159;27398;-73
2022/04/02 02:47:52;;;;;;;3.00;2.10;;;3.40;93.50;;;;;;866141;162;27661;-73
2022/04/02 02:50:18;;;;;;;2.33;2.13;;;3.40;93.60;;;;;;866444;162;27459;-73
2022/04/02 02:52:45;;;;;;;2.00;1.90;;;3.40;93.60;;;;;;867246;162;27542;-73
2022/04/02 02:55:11;;;;;;;2.90;2.70;;;3.40;93.60;;;;;;880085;159;27539;-74
2022/04/02 02:57:38;;;;;;;2.00;1.90;;;3.40;93.70;;;;;;866305;162;27506;-73
2022/04/02 03:00:05;;;;;;;2.33;2.13;;;3.40;93.60;;;;;;878405;159;27571;-73
2022/04/02 03:02:31;;;;;;;2.47;2.20;;;3.40;93.60;;;;;;864344;162;27388;-74
2022/04/02 03:04:58;;;;;;;2.60;2.40;;;3.40;93.60;;;;;;880650;159;27917;-73
2022/04/02 03:07:25;;;;;;;2.53;2.33;;;3.40;93.60;;;;;;878526;160;27371;-74
2022/04/02 03:09:51;;;;;;;2.60;2.40;;;3.40;93.60;;;;;;876929;159;27434;-74
2022/04/02 03:12:17;;;;;;;2.60;2.23;;;3.40;93.70;;;;;;878132;159;27498;-73
2022/04/02 03:14:44;;;;;;;2.40;2.20;;;3.40;93.70;;;;;;881856;158;27414;-74
2022/04/02 03:17:11;;;;;;;2.30;2.10;;;3.40;93.70;;;;;;894186;156;27337;-73
2022/04/02 03:19:37;;;;;;;2.33;2.13;;;3.40;93.80;;;;;;893138;156;27336;-74
2022/04/02 03:22:04;;;;;;;2.47;2.23;;;3.40;93.80;;;;;;891599;157;27869;-74
2022/04/02 03:24:30;;;;;;;2.43;2.23;;;3.40;93.80;;;;;;893431;156;27513;-73
2022/04/02 03:26:57;;;;;;;2.73;2.53;;;3.40;93.80;;;;;;897247;156;27344;-73
2022/04/02 03:29:24;;;;;;;2.27;1.93;;;3.40;93.80;;;;;;897290;156;27494;-73
2022/04/02 03:31:50;;;;;;;1.93;1.83;;;3.40;93.80;;;;;;898588;156;27472;-73
2022/04/02 03:34:17;;;;;;;2.50;1.97;;;3.40;93.90;;;;;;899062;156;27913;-74
2022/04/02 03:36:44;;;;;;;2.37;2.17;;;3.40;93.90;;;;;;899075;156;27585;-73
2022/04/02 03:39:11;;;;;;;2.33;2.13;;;3.40;93.90;;;;;;897667;156;27415;-73
2022/04/02 03:41:36;;;;;;;2.00;1.90;;;3.40;93.90;;;;;;898698;156;27375;-74
2022/04/02 03:44:03;;;;;;;2.20;1.97;;;3.40;93.90;;;;;;898226;156;27351;-74
2022/04/02 03:49:14;;;;;;;2.17;2.07;;;3.40;94.00;;;;;;863401;163;27548;-74
2022/04/02 03:51:41;;;;;;;3.20;2.30;;;3.40;93.90;;;;;;876529;160;27895;-73
2022/04/02 03:54:07;;;;;;;3.10;2.80;;;3.40;93.90;;;;;;867346;163;27381;-74
2022/04/02 03:56:34;;;;;;;3.47;2.37;;;3.40;93.90;;;;;;864232;163;27473;-73
2022/04/02 03:59:01;;;;;;;3.00;2.57;;;3.40;93.90;;;;;;874348;161;27533;-73
2022/04/02 04:01:27;;;;;;;2.37;2.17;;;3.40;93.90;;;;;;878538;160;27856;-73
2022/04/02 04:03:54;;;;;;;2.10;2.00;;;3.40;93.90;;;;;;877859;160;27453;-73
2022/04/02 04:06:20;;;;;;;5.23;2.30;;;3.40;93.90;;;;;;884480;159;27441;-73
2022/04/02 04:08:47;;;;;;;2.53;2.33;;;3.40;93.90;;;;;;898650;156;27385;-74
2022/04/02 04:11:14;;;;;;;2.43;2.23;;;3.40;94.20;;;;;;878181;160;27456;-74
2022/04/02 04:13:40;;;;;;;1.90;1.80;;;3.40;93.90;;;;;;867068;163;27615;-73
2022/04/02 04:16:07;;;;;;;2.90;2.60;;;3.40;93.90;;;;;;878780;160;27356;-73
2022/04/02 04:18:33;;;;;;;3.50;2.70;;;3.40;93.80;;;;;;886038;159;27750;-73
2022/04/02 04:21:00;;;;;;;2.47;2.27;;;3.40;93.80;;;;;;898067;156;27423;-73
2022/04/02 04:23:26;;;;;;;2.40;2.20;;;3.40;93.90;;;;;;898972;156;27505;-73
2022/04/02 04:25:54;;;;;;;3.43;3.10;;;3.40;93.80;;;;;;896232;157;28178;-73
2022/04/02 04:28:19;;;;;;;4.23;2.40;;;3.40;93.80;;;;;;893394;157;27508;-73
2022/04/02 04:30:48;;;;;;;2.77;2.20;;;3.30;93.80;;;;;;895080;157;27392;-73
2022/04/02 04:33:13;;;;;;;2.63;2.43;;;3.40;93.90;;;;;;894928;157;27348;-73
2022/04/02 04:35:39;;;;;;;2.33;2.13;;;3.40;93.90;;;;;;894467;157;27453;-73
2022/04/02 04:38:06;;;;;;;2.77;2.57;;;3.40;93.90;;;;;;894700;157;27432;-73
2022/04/02 04:40:32;;;;;;;3.07;2.40;;;3.30;93.90;;;;;;893517;157;27521;-73
2022/04/02 04:42:59;;;;;;;2.33;2.23;;;3.30;93.80;;;;;;895392;157;27379;-73
2022/04/02 04:45:26;;;;;;;2.77;2.57;;;3.30;93.90;;;;;;894687;157;27502;-73
2022/04/02 04:47:52;;;;;;;3.13;2.80;;;3.30;94.00;;;;;;894710;157;27535;-74
2022/04/02 04:50:19;;;;;;;2.90;2.60;;;3.30;93.90;;;;;;896516;157;27434;-73
2022/04/02 04:52:45;;;;;;;3.03;2.80;;;3.30;93.80;;;;;;895614;157;27337;-73
2022/04/02 04:55:12;;;;;;;2.97;2.23;;;3.30;93.90;;;;;;894999;157;27835;-73
2022/04/02 04:57:38;;;;;;;4.90;2.43;;;3.30;93.80;;;;;;894754;157;27421;-73
2022/04/02 05:00:05;;;;;;;3.10;2.73;;;3.30;93.90;;;;;;894782;157;27538;-73
2022/04/02 05:02:32;;;;;;;4.37;2.83;;;3.30;93.80;;;;;;895246;157;27488;-73
2022/04/02 05:04:58;;;;;;;2.77;2.30;;;3.30;93.80;;;;;;894829;157;27345;-73
2022/04/02 05:07:25;;;;;;;2.90;2.70;;;3.30;93.90;;;;;;895015;157;27489;-73
2022/04/02 05:09:52;;;;;;;2.53;2.33;;;3.30;93.90;;;;;;893124;157;27380;-73
2022/04/02 05:12:18;;;;;;;2.37;2.20;;;3.30;93.90;;;;;;896456;157;27475;-74
2022/04/02 05:14:45;;;;;;;2.63;2.00;;;3.20;93.80;;;;;;895909;157;27426;-73
2022/04/02 05:17:11;;;;;;;2.90;2.60;;;3.20;93.90;;;;;;895621;156;27502;-73
2022/04/02 05:19:38;;;;;;;2.80;2.57;;;3.20;93.90;;;;;;894373;157;27396;-73
2022/04/02 05:22:04;;;;;;;2.97;2.40;;;3.20;94.00;;;;;;893756;157;27329;-74
2022/04/02 05:24:31;;;;;;;2.67;2.30;;;3.20;93.90;;;;;;893695;157;27850;-74
2022/04/02 05:26:58;;;;;;;2.70;2.50;;;3.20;93.60;;;;;;894071;157;27577;-73
2022/04/02 05:29:25;;;;;;;3.50;2.43;;;3.20;93.90;;;;;;893720;157;27391;-73
2022/04/02 05:31:51;;;;;;;2.47;2.27;;;3.20;93.80;;;;;;894466;157;27457;-73
2022/04/02 05:34:17;;;;;;;4.40;2.80;;;3.20;93.90;;;;;;893733;157;27450;-72
2022/04/02 05:36:44;;;;;;;3.03;2.57;;;3.20;93.90;;;;;;894530;157;27439;-73
2022/04/02 05:39:11;;;;;;;3.87;2.80;;;3.20;93.50;;;;;;895044;157;27427;-73
2022/04/02 05:41:37;;;;;;;2.73;2.53;;;3.10;93.90;;;;;;896341;157;27410;-73
2022/04/02 05:44:04;;;;;;;2.90;2.60;;;3.20;93.90;;;;;;892678;157;27364;-73
2022/04/02 05:46:30;;;;;;;3.53;2.60;;;3.20;94.00;;;;;;893987;157;27483;-73
2022/04/02 05:48:57;;;;;;;4.00;2.60;;;3.20;94.00;;;;;;894332;157;27521;-73
2022/04/02 05:51:23;;;;;;;2.77;2.50;;;3.20;94.00;;;;;;895621;156;27418;-73
2022/04/02 05:53:50;;;;;;;2.97;2.67;;;3.20;94.00;;;;;;895372;157;27506;-73
2022/04/02 05:56:17;;;;;;;2.80;2.60;;;3.20;93.90;;;;;;895582;157;27380;-73
2022/04/02 05:58:44;;;;;;;3.47;2.90;;;3.20;94.00;;;;;;894066;157;27477;-73
2022/04/02 06:01:10;;;;;;;2.43;2.23;;;3.20;94.00;;;;;;896371;157;27574;-74
2022/04/02 06:03:36;;;;;;;3.87;3.47;;;3.20;94.10;;;;;;894163;157;27431;-73
2022/04/02 06:06:03;;;;;;;5.13;2.93;;;3.20;94.00;;;;;;892262;157;27515;-73
2022/04/02 06:08:30;;;;;;;2.90;2.60;;;3.20;94.10;;;;;;896711;157;27500;-73
2022/04/02 06:10:56;;;;;;;2.60;2.40;;;3.20;94.00;;;;;;894994;157;27407;-74
2022/04/02 06:13:23;;;;;;;3.07;2.40;;;3.30;94.00;;;;;;894925;157;27463;-75
2022/04/02 06:15:49;;;;;;;3.10;2.50;;;3.30;94.00;;;;;;893842;157;27463;-73
2022/04/02 06:18:18;;;;;;;2.83;2.17;;;3.30;94.00;;;;;;895188;157;27466;-73
2022/04/02 06:20:42;;;;;;;4.63;2.90;;;3.30;94.10;;;;;;894841;157;27499;-73
2022/04/02 06:23:09;;;;;;;2.30;2.10;;;3.30;94.00;;;;;;895170;157;27491;-74
2022/04/02 06:25:36;;;;;;;4.43;2.70;;;3.30;93.90;;;;;;896194;156;27443;-74
2022/04/02 06:28:02;;;;;;;2.17;2.00;;;3.30;93.90;;;;;;892859;156;27502;-73
2022/04/02 06:30:29;;;;;;;3.73;2.30;;;3.30;94.00;;;;;;892275;156;28216;-74
2022/04/02 06:32:55;;;;;;;2.73;2.50;;;3.40;94.00;;;;;;893282;156;27385;-74
2022/04/02 06:35:22;;;;;;;2.83;2.30;;;3.40;94.00;;;;;;893679;156;27449;-74
2022/04/02 06:40:23;;;;;;;2.13;2.03;;;3.40;94.00;;;;;;974858;144;37237;-74
2022/04/02 06:42:49;;;;;;;2.07;1.90;;;3.40;94.10;;;;;;959132;147;27287;-75
2022/04/02 06:45:16;;;;;;;2.40;2.20;;;3.50;94.10;;;;;;958871;147;27443;-74
2022/04/02 06:47:42;;;;;;;2.50;2.30;;;3.50;94.10;;;;;;959407;147;27259;-74
2022/04/02 06:50:09;;;;;;;2.13;2.03;;;3.50;94.20;;;;;;958906;147;27244;-75
2022/04/02 06:52:35;;;;;;;4.43;2.30;;;3.60;94.20;;;;;;958677;147;27397;-74
2022/04/02 06:55:02;;;;;;;2.77;2.50;;;3.60;94.10;;;;;;958779;147;27308;-75
2022/04/02 06:57:29;;;;;;;3.00;2.20;;;3.60;94.10;;;;;;958937;147;27403;-74
2022/04/02 06:59:56;;;;;;;4.53;3.33;;;3.70;94.10;;;;;;959561;147;27345;-75
2022/04/02 07:02:22;;;;;;;3.77;2.10;;;3.70;94.10;;;;;;958823;147;27259;-75
2022/04/02 07:04:48;;;;;;;2.57;2.30;;;3.70;94.10;;;;;;960334;147;27339;-75
2022/04/02 07:07:15;;;;;;;2.60;2.07;;;3.70;94.00;;;;;;960127;147;27387;-76
2022/04/02 07:09:42;;;;;;;2.30;2.10;;;3.80;93.90;;;;;;959310;147;27428;-74
2022/04/02 07:12:09;;;;;;;2.40;2.20;;;3.80;93.80;;;;;;959517;147;27287;-74
2022/04/02 07:14:35;;;;;;;2.67;2.43;;;3.80;93.60;;;;;;955987;149;27298;-75
2022/04/02 07:17:01;;;;;;;3.10;2.63;;;3.90;93.60;;;;;;954558;148;27394;-75
2022/04/02 07:19:28;;;;;;;2.27;2.10;;;3.90;93.60;;;;;;951803;149;27441;-75
2022/04/02 07:21:55;;;;;;;2.53;2.33;;;3.90;93.70;;;;;;954973;149;27404;-74
2022/04/02 07:24:21;;;;;;;4.10;2.20;;;3.90;93.70;;;;;;954731;147;28339;-74
2022/04/02 07:26:48;;;;;;;2.83;2.17;;;3.90;93.70;;;;;;954536;149;27306;-74
2022/04/02 07:29:14;;;;;;;3.10;2.50;;;4.00;93.70;;;;;;954850;147;27248;-74
2022/04/02 07:31:41;;;;;;;2.83;2.33;;;4.00;93.60;;;;;;952419;147;27288;-74
2022/04/02 07:34:07;;;;;;;2.53;2.33;;;4.00;93.50;;;;;;954154;147;27420;-74
2022/04/02 07:36:40;;;;;;;3.43;2.47;;;4.00;93.50;;;;;;954872;146;27436;-74
2022/04/02 07:39:22;;;;;;;3.97;2.73;;;4.00;93.40;;;;;;954265;149;27389;-74
2022/04/02 07:41:48;;;;;;;4.30;2.50;;;4.00;93.40;;;;;;945360;148;27363;-74
2022/04/02 07:44:21;;;;;;;4.33;2.60;;;4.10;93.40;;;;;;954150;149;27363;-75
2022/04/02 07:46:47;;;;;;;2.07;1.97;;;4.10;93.50;;;;;;955395;149;28949;-73
2022/04/02 07:49:14;;;;;;;2.67;2.40;;;4.10;93.60;;;;;;954804;149;27408;-74
2022/04/02 07:51:40;;;;;;;2.90;2.60;;;4.20;93.60;;;;;;954200;149;27345;-74
2022/04/02 07:54:07;;;;;;;2.97;2.43;;;4.20;93.50;;;;;;954603;149;27385;-74
2022/04/02 07:56:36;;;;;;;2.37;2.17;;;4.20;93.40;;;;;;956023;149;27352;-74
2022/04/02 07:59:06;;;;;;;2.73;2.43;;;4.30;93.50;;;;;;953995;146;27452;-74
2022/04/02 08:01:32;;;;;;;2.67;2.47;;;4.40;93.40;;;;;;950217;147;27286;-74
2022/04/02 08:03:59;;;;;;;2.23;2.03;;;4.40;93.50;;;;;;955058;149;27240;-74
2022/04/02 08:06:26;;;;;;;2.63;2.10;;;4.40;93.50;;;;;;953833;149;27321;-74
2022/04/02 08:08:52;;;;;;;2.40;2.10;;;4.50;93.40;;;;;;955605;146;27338;-75
2022/04/02 08:11:19;;;;;;;2.70;2.50;;;4.50;93.40;;;;;;954131;146;27335;-74
2022/04/02 08:13:45;;;;;;;1.87;1.77;;;4.60;93.50;;;;;;953209;149;27308;-74
2022/04/02 08:16:12;;;;;;;3.00;2.70;;;4.60;93.50;;;;;;956795;146;27325;-75
2022/04/02 08:18:41;;;;;;;4.73;3.53;;;4.70;93.40;;;;;;957203;149;27308;-75
2022/04/02 08:21:08;;;;;;;4.70;2.70;;;4.70;93.40;;;;;;955022;146;27789;-75
2022/04/02 08:23:34;;;;;;;2.73;2.47;;;4.80;93.20;;;;;;955349;149;27430;-75
2022/04/02 08:26:23;;;;;;;4.10;2.73;;;4.90;93.30;;;;;;956302;146;27428;-74
2022/04/02 08:29:26;;;;;;;4.00;2.80;;;4.90;93.40;;;;;;955362;149;27336;-74
2022/04/02 08:31:57;;;;;;;2.83;2.27;;;5.00;93.40;;;;;;954512;149;27477;-75
2022/04/02 08:34:37;;;;;;;3.27;2.70;;;5.10;92.80;;;;;;956552;149;27736;-75
2022/04/02 08:37:22;;;;;;;2.90;2.60;;;5.20;92.70;;;;;;953102;149;27297;-75
2022/04/02 08:40:11;;;;;;;2.70;2.50;;;5.20;92.70;;;;;;955669;149;28684;-75
2022/04/02 08:43:04;;;;;;;3.90;2.80;;;5.30;92.80;;;;;;954841;149;27443;-75
2022/04/02 08:45:32;;;;;;;3.63;3.13;;;5.30;92.90;;;;;;954569;149;27356;-75
2022/04/02 08:48:12;;;;;;;4.60;2.70;;;5.40;93.00;;;;;;953322;149;27436;-75
2022/04/02 08:50:48;;;;;;;5.23;3.30;;;5.50;93.00;;;;;;954634;149;27237;-74
2022/04/02 08:53:35;;;;;;;5.17;3.37;;;5.60;92.90;;;;;;957258;149;27338;-76
2022/04/02 08:56:02;;;;;;;3.70;3.23;;;5.80;93.00;;;;;;954987;146;27381;-77
2022/04/02 08:58:47;;;;;;;3.00;2.67;;;5.90;92.90;;;;;;956035;149;27343;-76
2022/04/02 09:01:13;;;;;;;3.20;2.90;;;6.10;92.70;;;;;;954644;146;27240;-75
2022/04/02 09:03:55;;;;;;;2.80;2.60;;;6.20;92.00;;;;;;953860;146;27288;-75
2022/04/02 09:06:40;;;;;;;3.60;3.27;;;6.30;91.60;;;;;;934009;150;27532;-75
2022/04/02 09:09:07;;;;;;;3.40;3.10;;;6.40;91.10;;;;;;950357;146;27300;-74
2022/04/02 09:11:54;;;;;;;3.37;3.07;;;6.50;91.10;;;;;;953362;146;27339;-75
2022/04/02 09:14:30;;;;;;;3.57;3.27;;;6.60;90.90;;;;;;953616;149;27363;-74
2022/04/02 09:17:34;;;;;;;2.97;2.77;;;6.70;90.90;;;;;;951521;146;27385;-75
2022/04/02 09:20:27;;;;;;;5.07;3.60;;;6.80;91.00;;;;;;955431;146;27448;-74
2022/04/02 09:23:13;;;;;;;3.20;2.90;;;6.90;91.10;;;;;;955502;146;27392;-76
2022/04/02 09:25:47;;;;;;;3.40;2.83;;;7.10;91.30;;;;;;955800;148;27384;-75
2022/04/02 09:28:35;;;;;;;3.60;3.13;;;7.30;91.70;;;;;;954699;149;27396;-75
2022/04/02 09:31:07;;;;;;;4.33;3.30;;;7.50;91.70;;;;;;952267;146;27355;-75
2022/04/02 09:33:42;;;;;;;3.00;2.80;;;7.80;91.70;;;;;;954582;149;27329;-75
2022/04/02 09:36:28;;;;;;;3.77;3.47;;;8.00;91.10;;;;;;950936;146;27887;-75
2022/04/02 09:39:07;;;;;;;4.50;3.43;;;8.20;89.90;;;;;;953941;149;27337;-74
2022/04/02 09:41:58;;;;;;;3.90;3.30;;;8.40;88.20;;;;;;947433;146;27338;-74
2022/04/02 09:45:03;;;;;;;3.90;3.60;;;8.50;86.90;;;;;;948931;150;27293;-74
2022/04/02 09:47:27;;;;;;;4.50;4.07;;;8.60;84.10;;;;;;948688;150;27301;-74
2022/04/02 09:49:57;;;;;;;4.47;4.00;;;8.60;82.40;;;;;;931568;147;27442;-74
2022/04/02 09:52:23;;;;;;;8.67;3.70;;;8.60;81.80;;;;;;947518;150;27407;-74
2022/04/02 09:54:59;;;;;;;4.37;3.63;;;8.60;82.20;;;;;;949379;150;27316;-74
2022/04/02 09:57:38;;;;;;;4.33;2.80;;;8.60;80.80;;;;;;937948;150;27405;-74
2022/04/02 10:00:07;;;;;;;4.23;3.57;;;8.50;80.30;;;;;;950632;150;27356;-74
2022/04/02 10:03:01;;;;;;;4.50;4.10;;;8.50;78.50;;;;;;948485;147;27326;-74
2022/04/02 10:05:24;;;;;;;4.63;3.30;;;8.40;79.10;;;;;;948945;150;27381;-76
2022/04/02 10:08:06;;;;;;;6.07;3.00;;;8.40;79.70;;;;;;950408;150;27315;-74
2022/04/02 10:10:33;;;;;;;3.53;3.23;;;8.40;79.40;;;;;;949351;147;27352;-74
2022/04/02 10:13:00;;;;;;;3.67;3.20;;;8.40;79.20;;;;;;947401;147;27304;-74
2022/04/02 10:15:26;;;;;;;4.47;3.97;;;8.40;79.60;;;;;;948594;150;27372;-74
2022/04/02 10:17:53;;;;;;;3.90;3.50;;;8.40;80.20;;;;;;949640;147;27482;-73
2022/04/02 10:20:20;;;;;;;3.53;3.20;;;8.40;78.60;;;;;;946895;147;27302;-74
2022/04/02 10:22:46;;;;;;;3.97;3.60;;;8.50;79.40;;;;;;948084;150;27253;-73
2022/04/02 10:25:12;;;;;;;4.00;3.60;;;8.50;78.70;;;;;;949113;147;27288;-74
2022/04/02 10:27:39;;;;;;;3.53;3.23;;;8.60;78.00;;;;;;947102;150;27384;-74
2022/04/02 10:30:09;;;;;;;3.50;3.20;;;8.70;78.60;;;;;;948835;147;27426;-73
2022/04/02 10:32:53;;;;;;;5.67;3.23;;;8.70;78.50;;;;;;947420;149;27301;-73
2022/04/02 10:35:20;;;;;;;3.40;3.10;;;8.80;78.20;;;;;;947590;149;28273;-73
2022/04/02 10:38:05;;;;;;;2.83;2.50;;;8.80;78.00;;;;;;947276;149;27294;-74
2022/04/02 10:40:31;;;;;;;3.50;2.80;;;8.80;77.40;;;;;;946696;147;27341;-74
2022/04/02 10:43:06;;;;;;;3.77;3.30;;;8.80;76.80;;;;;;953707;148;27331;-73
2022/04/02 10:45:28;;;;;;;3.43;3.13;;;8.80;75.90;;;;;;951010;149;27460;-73
2022/04/02 10:48:09;;;;;;;4.33;3.60;;;8.80;76.10;;;;;;955808;146;27275;-74
2022/04/02 10:50:35;;;;;;;3.33;3.07;;;8.70;76.70;;;;;;954359;146;27320;-73
2022/04/02 10:53:02;;;;;;;5.10;3.73;;;8.80;77.20;;;;;;957471;149;27355;-74
2022/04/02 10:55:29;;;;;;;3.77;3.40;;;8.80;77.00;;;;;;955346;149;27876;-73
2022/04/02 10:58:02;;;;;;;4.30;3.30;;;8.80;76.10;;;;;;955702;146;27448;-73
2022/04/02 11:00:27;;;;;;;3.90;3.50;;;8.90;75.40;;;;;;956515;146;27295;-74
2022/04/02 11:03:03;;;;;;;3.60;3.20;;;8.90;74.60;;;;;;955259;146;27409;-74
2022/04/02 11:05:29;;;;;;;3.67;3.10;;;9.00;74.80;;;;;;950980;146;27436;-73
2022/04/02 11:07:56;;;;;;;4.00;3.37;;;9.00;75.00;;;;;;955416;149;27289;-73
2022/04/02 11:10:23;;;;;;;5.77;3.70;;;9.00;75.20;;;;;;955445;146;27418;-74
2022/04/02 11:12:49;;;;;;;4.17;3.60;;;9.00;74.00;;;;;;956361;148;27350;-74
2022/04/02 11:15:22;;;;;;;4.67;3.27;;;9.00;74.30;;;;;;952876;149;27288;-74
2022/04/02 11:17:48;;;;;;;3.53;2.87;;;9.10;74.30;;;;;;956369;146;27338;-73
2022/04/02 11:20:17;;;;;;;5.57;3.53;;;9.10;74.80;;;;;;957174;149;27319;-74
2022/04/02 11:22:49;;;;;;;3.97;3.67;;;9.10;74.00;;;;;;954646;149;27303;-74
2022/04/02 11:25:22;;;;;;;3.50;3.03;;;9.10;73.10;;;;;;955522;149;27347;-73
2022/04/02 11:27:52;;;;;;;3.33;3.00;;;9.10;72.80;;;;;;955339;149;27347;-74
2022/04/02 11:30:19;;;;;;;3.73;3.03;;;9.10;72.10;;;;;;955167;149;27338;-74
2022/04/02 11:32:45;;;;;;;4.33;3.47;;;9.00;72.50;;;;;;954515;149;27292;-73
2022/04/02 11:35:18;;;;;;;3.53;3.23;;;9.10;73.00;;;;;;956780;149;27243;-73
2022/04/02 11:37:56;;;;;;;3.80;3.20;;;9.00;72.80;;;;;;950588;149;27829;-74
2022/04/02 11:40:23;;;;;;;3.50;3.00;;;9.00;73.10;;;;;;955190;149;27433;-73
2022/04/02 11:42:50;;;;;;;3.47;3.17;;;9.00;72.60;;;;;;951616;146;27291;-74
2022/04/02 11:45:21;;;;;;;3.83;3.03;;;9.10;72.90;;;;;;949850;150;27346;-73
2022/04/02 11:47:49;;;;;;;3.27;2.97;;;9.10;72.00;;;;;;949599;147;27448;-74
2022/04/02 11:50:15;;;;;;;3.77;3.10;;;9.10;71.00;;;;;;949106;147;27855;-73
2022/04/02 11:52:56;;;;;;;5.80;2.93;;;9.10;71.70;;;;;;946648;150;27297;-73
2022/04/02 11:55:23;;;;;;;5.30;2.63;;;9.10;72.10;;;;;;936962;150;27314;-74
2022/04/02 11:58:07;;;;;;;3.03;2.80;;;9.10;70.90;;;;;;947912;150;27334;-74
2022/04/02 12:00:34;;;;;;;4.13;3.03;;;9.10;71.70;;;;;;950099;147;27474;-73
2022/04/02 12:03:00;;;;;;;3.70;3.03;;;9.10;71.70;;;;;;948198;148;27349;-73
2022/04/02 12:05:36;;;;;;;4.27;2.90;;;9.10;72.10;;;;;;949281;147;27389;-74
2022/04/02 12:08:02;;;;;;;3.10;2.80;;;9.20;71.60;;;;;;946749;150;27244;-74
2022/04/02 12:10:30;;;;;;;3.50;3.20;;;9.30;70.30;;;;;;948221;147;27343;-73
2022/04/02 12:12:56;;;;;;;5.47;3.07;;;9.30;70.30;;;;;;947702;150;27429;-73
2022/04/02 12:15:22;;;;;;;3.13;2.80;;;9.30;69.50;;;;;;947474;150;27402;-73
2022/04/02 12:17:49;;;;;;;3.20;2.57;;;9.40;69.90;;;;;;947442;147;27788;-73
2022/04/02 12:20:27;;;;;;;2.73;2.50;;;9.40;70.40;;;;;;947265;147;27317;-73
2022/04/02 12:23:12;;;;;;;3.40;3.00;;;9.40;70.00;;;;;;946677;150;27369;-74
2022/04/02 12:25:39;;;;;;;5.73;3.43;;;9.50;68.90;;;;;;948516;150;27461;-74
2022/04/02 12:28:17;;;;;;;3.90;3.50;;;9.50;69.50;;;;;;946777;147;27322;-74
2022/04/02 12:30:46;;;;;;;4.83;2.90;;;9.50;66.50;;;;;;928348;150;27327;-74
2022/04/02 12:33:14;;;;;;;3.20;2.70;;;9.50;67.60;;;;;;943025;147;27404;-73
2022/04/02 12:35:37;;;;;;;3.10;2.80;;;9.50;68.10;;;;;;944607;146;27380;-74
2022/04/02 12:38:05;;;;;;;3.77;2.87;;;9.50;67.10;;;;;;924126;150;27825;-74
2022/04/02 12:40:30;;;;;;;3.50;2.67;;;9.40;65.10;;;;;;940356;148;27385;-74
2022/04/02 12:42:57;;;;;;;2.30;2.10;;;9.40;66.10;;;;;;939601;149;27332;-73
2022/04/02 12:45:23;;;;;;;3.37;2.70;;;9.30;67.00;;;;;;938237;149;27302;-73
2022/04/02 12:48:05;;;;;;;3.17;2.77;;;9.20;66.00;;;;;;940481;149;27306;-73
2022/04/02 12:50:32;;;;;;;4.63;2.60;;;9.20;65.40;;;;;;940928;149;27437;-73
2022/04/02 12:52:59;;;;;;;4.33;2.83;;;9.00;66.00;;;;;;940784;149;27360;-73
2022/04/02 12:55:25;;;;;;;4.90;2.80;;;9.00;66.60;;;;;;942356;149;27744;-74
2022/04/02 12:58:07;;;;;;;3.87;2.90;;;8.90;66.70;;;;;;940303;149;27752;-73
2022/04/02 13:00:34;;;;;;;3.23;2.93;;;8.80;67.00;;;;;;940898;149;27341;-74
2022/04/02 13:02:59;;;;;;;2.93;2.73;;;8.80;67.80;;;;;;938456;149;27378;-74
2022/04/02 13:05:26;;;;;;;2.80;2.60;;;8.80;68.00;;;;;;941296;149;27274;-73
2022/04/02 13:08:03;;;;;;;3.37;2.80;;;8.80;67.90;;;;;;940521;149;27329;-74
2022/04/02 13:10:29;;;;;;;2.47;2.27;;;8.80;68.30;;;;;;940941;149;27427;-73
2022/04/02 13:12:58;;;;;;;3.10;2.47;;;8.80;68.50;;;;;;941745;149;27349;-74
2022/04/02 13:15:25;;;;;;;4.60;2.50;;;8.90;68.00;;;;;;938313;149;27542;-74
2022/04/02 13:20:36;;;;;;;2.90;2.60;;;8.80;67.70;;;;;;940784;149;28804;-74